createdAt,value
2018-04-11T00:00:53.400Z,100936.78
2018-04-11T00:03:21.676Z,100939.70
2018-04-11T00:05:50.113Z,100938.78
2018-04-11T00:08:19.232Z,100927.41
2018-04-11T00:10:48.355Z,100930.19
2018-04-11T00:13:16.741Z,100929.97
2018-04-11T00:15:45.683Z,100931.09
2018-04-11T00:18:14.783Z,100932.47
2018-04-11T00:20:43.836Z,100939.95
2018-04-11T00:23:12.848Z,100938.38
2018-04-11T00:25:41.426Z,100936.95
2018-04-11T00:28:09.703Z,100936.61
2018-04-11T00:30:38.128Z,100932.87
2018-04-11T00:33:07.179Z,100944.07
2018-04-11T00:35:35.436Z,100937.82
2018-04-11T00:38:03.731Z,100940.21
2018-04-11T00:40:32.195Z,100944.23
2018-04-11T00:43:02.035Z,100934.53
2018-04-11T00:45:30.815Z,100931.55
2018-04-11T00:47:59.103Z,100931.48
2018-04-11T00:50:27.829Z,100934.30
2018-04-11T00:53:14.634Z,100938.55
2018-04-11T00:55:43.691Z,100925.89
2018-04-11T00:58:12.922Z,100939.31
2018-04-11T01:00:43.203Z,100945.56
2018-04-11T01:03:11.471Z,100939.06
2018-04-11T01:05:40.179Z,100933.97
2018-04-11T01:08:09.146Z,100942.58
2018-04-11T01:10:37.682Z,100943.40
2018-04-11T01:13:06.289Z,100941.53
2018-04-11T01:15:36.275Z,100952.03
2018-04-11T01:18:05.226Z,100943.00
2018-04-11T01:20:33.486Z,100944.09
2018-04-11T01:23:01.766Z,100950.57
2018-04-11T01:25:30.819Z,100956.06
2018-04-11T01:27:59.094Z,100950.80
2018-04-11T01:30:27.412Z,100948.69
2018-04-11T01:32:55.922Z,100947.16
2018-04-11T01:35:24.215Z,100945.27
2018-04-11T01:37:52.519Z,100954.53
2018-04-11T01:40:21.750Z,100948.29
2018-04-11T01:42:50.776Z,100952.00
2018-04-11T01:45:19.685Z,100954.64
2018-04-11T01:47:47.974Z,100956.17
2018-04-11T01:50:16.237Z,100953.62
2018-04-11T01:52:44.610Z,100956.02
2018-04-11T01:55:13.758Z,100945.25
2018-04-11T01:57:42.799Z,100957.33
2018-04-11T02:00:12.095Z,100948.05
2018-04-11T02:02:40.376Z,100944.66
2018-04-11T02:05:08.650Z,100950.14
2018-04-11T02:07:37.680Z,100945.82
2018-04-11T02:10:06.277Z,100954.78
2018-04-11T02:12:35.138Z,100952.31
2018-04-11T02:15:03.885Z,100961.44
2018-04-11T02:17:32.166Z,100964.69
2018-04-11T02:20:00.576Z,100963.33
2018-04-11T02:22:30.927Z,100968.64
2018-04-11T02:24:59.791Z,100979.77
2018-04-11T02:27:28.731Z,100977.91
2018-04-11T02:29:57.795Z,100980.36
2018-04-11T02:32:26.689Z,100967.70
2018-04-11T02:34:55.259Z,100975.92
2018-04-11T02:37:24.384Z,100976.86
2018-04-11T02:39:53.498Z,100977.06
2018-04-11T02:42:22.644Z,100969.84
2018-04-11T02:44:51.643Z,100970.69
2018-04-11T02:47:19.920Z,100981.27
2018-04-11T02:49:48.286Z,100981.98
2018-04-11T02:52:16.566Z,100983.81
2018-04-11T02:54:45.508Z,100974.27
2018-04-11T02:57:14.039Z,100979.48
2018-04-11T02:59:43.906Z,100979.52
2018-04-11T03:02:13.032Z,100986.98
2018-04-11T03:04:42.057Z,100989.39
2018-04-11T03:07:10.321Z,100980.70
2018-04-11T03:09:39.735Z,100979.27
2018-04-11T03:12:08.019Z,100984.31
2018-04-11T03:14:37.046Z,100980.99
2018-04-11T03:17:05.327Z,100987.39
2018-04-11T03:19:34.207Z,100983.32
2018-04-11T03:22:02.519Z,100975.28
2018-04-11T03:24:31.562Z,100975.05
2018-04-11T03:26:59.837Z,100981.30
2018-04-11T03:29:28.566Z,100986.52
2018-04-11T03:31:56.916Z,100989.03
2018-04-11T03:34:25.191Z,100985.09
2018-04-11T03:36:53.787Z,100989.64
2018-04-11T03:39:22.063Z,100987.56
2018-04-11T03:41:51.250Z,100993.39
2018-04-11T03:44:20.638Z,100995.23
2018-04-11T03:46:50.388Z,100988.97
2018-04-11T03:49:18.769Z,100981.03
2018-04-11T03:51:47.136Z,100983.11
2018-04-11T03:54:15.763Z,100992.50
2018-04-11T03:56:45.814Z,100989.95
2018-04-11T03:59:14.106Z,100989.53
2018-04-11T04:01:42.537Z,100994.45
2018-04-11T04:04:10.847Z,100997.67
2018-04-11T04:06:39.946Z,100992.41
2018-04-11T04:09:08.242Z,100999.90
2018-04-11T04:11:36.530Z,100998.55
2018-04-11T04:14:22.922Z,100998.34
2018-04-11T04:17:09.053Z,101006.94
2018-04-11T04:19:55.224Z,101005.59
2018-04-11T04:22:23.483Z,101008.56
2018-04-11T04:24:51.758Z,101009.86
2018-04-11T04:27:20.139Z,101003.91
2018-04-11T04:29:49.455Z,101002.58
2018-04-11T04:32:17.743Z,100995.39
2018-04-11T04:34:46.375Z,101003.01
2018-04-11T04:37:14.943Z,101011.69
2018-04-11T04:39:44.007Z,101009.04
2018-04-11T04:42:12.783Z,101020.03
2018-04-11T04:44:41.142Z,101016.75
2018-04-11T04:47:09.474Z,101023.67
2018-04-11T04:49:37.878Z,101022.48
2018-04-11T04:52:06.932Z,101028.12
2018-04-11T04:54:36.110Z,101022.09
2018-04-11T04:57:05.015Z,101028.38
2018-04-11T04:59:33.283Z,101023.17
2018-04-11T05:02:01.750Z,101031.70
2018-04-11T05:04:30.422Z,101024.75
2018-04-11T05:06:58.701Z,101025.98
2018-04-11T05:09:26.972Z,101023.24
2018-04-11T05:11:55.281Z,101013.30
2018-04-11T05:14:24.270Z,101019.88
2018-04-11T05:16:52.552Z,101021.22
2018-04-11T05:19:21.225Z,101020.94
2018-04-11T05:21:50.350Z,101016.36
2018-04-11T05:24:18.611Z,101027.20
2018-04-11T05:26:46.891Z,101030.00
2018-04-11T05:29:15.363Z,101033.61
2018-04-11T05:31:43.902Z,101038.51
2018-04-11T05:34:12.512Z,101029.16
2018-04-11T05:36:41.635Z,101043.47
2018-04-11T05:39:10.074Z,101038.09
2018-04-11T05:41:39.114Z,101046.36
2018-04-11T05:44:08.011Z,101041.95
2018-04-11T05:46:38.022Z,101047.77
2018-04-11T05:49:06.293Z,101054.48
2018-04-11T05:51:34.774Z,101052.93
2018-04-11T05:54:03.297Z,101059.50
2018-04-11T05:56:31.884Z,101062.15
2018-04-11T05:59:00.162Z,101064.81
2018-04-11T06:01:29.061Z,101072.55
2018-04-11T06:03:57.401Z,101078.25
2018-04-11T06:06:27.628Z,101078.00
2018-04-11T06:08:56.022Z,101085.95
2018-04-11T06:11:24.316Z,101080.67
2018-04-11T06:13:52.660Z,101089.55
2018-04-11T06:16:20.932Z,101092.70
2018-04-11T06:18:49.335Z,101092.98
2018-04-11T06:21:17.607Z,101100.63
2018-04-11T06:23:45.882Z,101105.42
2018-04-11T06:26:14.191Z,101123.14
2018-04-11T06:28:42.461Z,101116.02
2018-04-11T06:31:13.675Z,101109.17
2018-04-11T06:33:42.001Z,101106.97
2018-04-11T06:36:10.274Z,101103.55
2018-04-11T06:38:38.714Z,101106.96
2018-04-11T06:41:06.991Z,101112.83
2018-04-11T06:43:36.007Z,101108.46
2018-04-11T06:46:06.022Z,101112.72
2018-04-11T06:48:34.308Z,101111.34
2018-04-11T06:51:03.113Z,101114.09
2018-04-11T06:53:31.403Z,101104.81
2018-04-11T06:56:00.559Z,101107.78
2018-04-11T06:58:29.030Z,101112.20
2018-04-11T07:00:57.856Z,101097.72
2018-04-11T07:03:26.734Z,101108.88
2018-04-11T07:05:55.095Z,101105.87
2018-04-11T07:08:23.387Z,101114.69
2018-04-11T07:10:53.097Z,101120.63
2018-04-11T07:13:21.350Z,101130.88
2018-04-11T07:15:50.354Z,101118.29
2018-04-11T07:18:19.426Z,101113.19
2018-04-11T07:20:48.983Z,101106.86
2018-04-11T07:23:17.802Z,101113.70
2018-04-11T07:25:47.081Z,101120.77
2018-04-11T07:28:16.860Z,101125.44
2018-04-11T07:30:45.186Z,101125.94
2018-04-11T07:33:14.035Z,101129.61
2018-04-11T07:35:42.408Z,101132.97
2018-04-11T07:38:10.742Z,101140.82
2018-04-11T07:40:39.794Z,101149.29
2018-04-11T07:43:08.180Z,101155.44
2018-04-11T07:45:36.497Z,101158.75
2018-04-11T07:48:06.439Z,101152.69
2018-04-11T07:50:35.479Z,101155.59
2018-04-11T07:53:04.282Z,101157.39
2018-04-11T07:55:34.747Z,101157.73
2018-04-11T07:58:05.304Z,101150.48
2018-04-11T08:00:34.101Z,101147.84
2018-04-11T08:03:02.392Z,101150.55
2018-04-11T08:05:31.006Z,101148.93
2018-04-11T08:07:59.698Z,101157.07
2018-04-11T08:10:28.726Z,101154.72
2018-04-11T08:12:57.642Z,101142.13
2018-04-11T08:15:26.768Z,101134.33
2018-04-11T08:17:57.560Z,101153.17
2018-04-11T08:20:25.781Z,101143.56
2018-04-11T08:22:54.378Z,101161.23
2018-04-11T08:25:23.271Z,101160.89
2018-04-11T08:27:52.031Z,101154.42
2018-04-11T08:30:20.447Z,101165.77
2018-04-11T08:32:49.901Z,101167.83
2018-04-11T08:35:18.920Z,101170.62
2018-04-11T08:37:47.304Z,101170.02
2018-04-11T08:40:15.617Z,101177.35
2018-04-11T08:42:44.083Z,101169.28
2018-04-11T08:45:13.141Z,101164.50
2018-04-11T08:47:41.681Z,101166.61
2018-04-11T08:50:09.987Z,101167.91
2018-04-11T08:52:38.459Z,101180.73
2018-04-11T08:55:06.759Z,101170.27
2018-04-11T08:57:35.139Z,101183.62
2018-04-11T09:00:03.414Z,101178.64
2018-04-11T09:02:31.736Z,101189.70
2018-04-11T09:05:00.791Z,101186.55
2018-04-11T09:07:29.064Z,101175.89
2018-04-11T09:09:59.015Z,101176.80
2018-04-11T09:12:27.650Z,101176.23
2018-04-11T09:14:55.912Z,101171.60
2018-04-11T09:17:24.202Z,101176.60
2018-04-11T09:19:52.714Z,101184.05
2018-04-11T09:22:21.862Z,101181.87
2018-04-11T09:24:51.275Z,101194.22
2018-04-11T09:27:19.726Z,101186.35
2018-04-11T09:29:48.000Z,101192.14
2018-04-11T09:32:16.841Z,101179.06
2018-04-11T09:34:45.362Z,101184.95
2018-04-11T09:37:15.569Z,101175.47
2018-04-11T09:39:44.259Z,101173.45
2018-04-11T09:42:12.622Z,101168.70
2018-04-11T09:44:42.956Z,101165.44
2018-04-11T09:47:12.953Z,101156.98
2018-04-11T09:49:41.963Z,101165.13
2018-04-11T09:52:10.244Z,101143.98
2018-04-11T09:54:38.512Z,101145.28
2018-04-11T09:57:09.060Z,101166.97
2018-04-11T09:59:38.087Z,101154.38
2018-04-11T10:02:06.391Z,101164.70
2018-04-11T10:04:35.572Z,101159.19
2018-04-11T10:07:04.619Z,101157.80
2018-04-11T10:09:32.881Z,101160.42
2018-04-11T10:12:01.380Z,101161.04
2018-04-11T10:14:30.604Z,101174.52
2018-04-11T10:16:59.578Z,101167.03
2018-04-11T10:19:28.024Z,101171.23
2018-04-11T10:21:59.056Z,101166.66
2018-04-11T10:24:28.479Z,101173.25
2018-04-11T10:26:58.031Z,101166.33
2018-04-11T10:29:26.843Z,101162.95
2018-04-11T10:31:55.189Z,101167.01
2018-04-11T10:34:23.462Z,101166.66
2018-04-11T10:36:52.258Z,101175.81
2018-04-11T10:39:20.743Z,101169.52
2018-04-11T10:41:49.210Z,101173.11
2018-04-11T10:44:17.621Z,101157.84
2018-04-11T10:46:45.915Z,101158.09
2018-04-11T10:49:14.198Z,101162.64
2018-04-11T10:51:44.214Z,101145.61
2018-04-11T10:54:13.576Z,101140.80
2018-04-11T10:56:41.851Z,101137.46
2018-04-11T10:59:10.131Z,101141.56
2018-04-11T11:01:38.427Z,101128.25
2018-04-11T11:04:07.273Z,101134.52
2018-04-11T11:06:35.555Z,101120.23
2018-04-11T11:09:03.838Z,101122.23
2018-04-11T11:11:32.328Z,101118.83
2018-04-11T11:14:00.603Z,101128.31
2018-04-11T11:16:36.763Z,101123.56
2018-04-11T11:19:05.019Z,101116.77
2018-04-11T11:21:33.307Z,101102.17
2018-04-11T11:24:01.600Z,101113.61
2018-04-11T11:26:29.902Z,101115.77
2018-04-11T11:28:58.464Z,101113.81
2018-04-11T11:31:26.739Z,101119.15
2018-04-11T11:33:55.007Z,101124.55
2018-04-11T11:36:23.489Z,101132.53
2018-04-11T11:38:52.377Z,101129.83
2018-04-11T11:41:20.657Z,101122.14
2018-04-11T11:43:48.969Z,101120.17
2018-04-11T11:46:17.319Z,101119.06
2018-04-11T11:48:45.822Z,101131.09
2018-04-11T11:51:14.761Z,101119.06
2018-04-11T11:53:44.544Z,101125.50
2018-04-11T11:56:13.150Z,101121.64
2018-04-11T11:58:42.407Z,101118.31
2018-04-11T12:01:10.705Z,101132.17
2018-04-11T12:03:39.019Z,101146.23
2018-04-11T12:06:08.882Z,101138.16
2018-04-11T12:08:37.238Z,101114.85
2018-04-11T12:11:05.544Z,101130.16
2018-04-11T12:13:33.858Z,101121.98
2018-04-11T12:16:02.931Z,101110.98
2018-04-11T12:18:31.552Z,101114.77
2018-04-11T12:21:00.583Z,101125.77
2018-04-11T12:23:29.327Z,101132.80
2018-04-11T12:25:59.228Z,101131.41
2018-04-11T12:28:27.759Z,101135.27
2018-04-11T12:30:56.035Z,101117.98
2018-04-11T12:33:24.855Z,101127.80
2018-04-11T12:35:53.541Z,101128.41
2018-04-11T12:38:21.899Z,101131.60
2018-04-11T12:40:50.190Z,101118.67
2018-04-11T12:43:19.206Z,101109.09
2018-04-11T12:45:48.023Z,101118.86
2018-04-11T12:48:17.764Z,101117.97
2018-04-11T12:50:47.533Z,101123.56
2018-04-11T12:53:17.421Z,101115.53
2018-04-11T12:55:45.686Z,101108.90
2018-04-11T12:58:14.824Z,101112.66
2018-04-11T13:00:43.423Z,101116.91
2018-04-11T13:03:12.470Z,101124.05
2018-04-11T13:05:41.715Z,101114.00
2018-04-11T13:08:10.298Z,101119.55
2018-04-11T13:10:39.451Z,101115.14
2018-04-11T13:13:08.489Z,101112.16
2018-04-11T13:15:37.525Z,101113.55
2018-04-11T13:18:06.016Z,101110.24
2018-04-11T13:20:34.324Z,101106.32
2018-04-11T13:23:02.599Z,101107.56
2018-04-11T13:25:31.066Z,101107.41
2018-04-11T13:27:59.355Z,101112.88
2018-04-11T13:30:27.961Z,101101.08
2018-04-11T13:32:56.238Z,101109.88
2018-04-11T13:35:26.113Z,101108.67
2018-04-11T13:37:55.111Z,101103.62
2018-04-11T13:40:23.404Z,101104.05
2018-04-11T13:42:51.687Z,101106.37
2018-04-11T13:45:21.296Z,101103.98
2018-04-11T13:47:50.309Z,101096.53
2018-04-11T13:50:19.651Z,101094.06
2018-04-11T13:52:48.363Z,101083.33
2018-04-11T13:55:16.643Z,101092.56
2018-04-11T13:57:45.127Z,101086.45
2018-04-11T14:00:13.530Z,101081.69
2018-04-11T14:02:42.415Z,101085.53
2018-04-11T14:05:11.869Z,101079.70
2018-04-11T14:07:41.115Z,101091.98
2018-04-11T14:10:09.411Z,101082.77
2018-04-11T14:12:37.813Z,101084.45
2018-04-11T14:15:06.854Z,101082.98
2018-04-11T14:17:35.130Z,101077.69
2018-04-11T14:20:03.442Z,101068.59
2018-04-11T14:22:32.255Z,101060.53
2018-04-11T14:25:01.473Z,101074.11
2018-04-11T14:27:29.768Z,101067.59
2018-04-11T14:29:58.952Z,101047.91
2018-04-11T14:32:27.569Z,101069.87
2018-04-11T14:34:55.944Z,101077.53
2018-04-11T14:37:24.408Z,101079.69
2018-04-11T14:39:52.997Z,101065.58
2018-04-11T14:42:21.587Z,101079.45
2018-04-11T14:44:49.847Z,101091.16
2018-04-11T14:47:18.122Z,101079.81
2018-04-11T14:49:46.411Z,101084.69
2018-04-11T14:52:15.509Z,101072.03
2018-04-11T14:54:45.843Z,101078.17
2018-04-11T14:57:14.606Z,101076.27
2018-04-11T14:59:43.325Z,101068.27
2018-04-11T15:02:11.629Z,101055.52
2018-04-11T15:04:40.036Z,101056.16
2018-04-11T15:07:09.862Z,101079.16
2018-04-11T15:09:38.716Z,101082.16
2018-04-11T15:12:11.769Z,101063.32
2018-04-11T15:14:40.073Z,101078.44
2018-04-11T15:17:08.357Z,101087.08
2018-04-11T15:19:36.631Z,101073.41
2018-04-11T15:22:04.990Z,101073.88
2018-04-11T15:24:34.846Z,101071.88
2018-04-11T15:27:03.143Z,101068.20
2018-04-11T15:29:32.296Z,101064.61
2018-04-11T15:32:00.648Z,101065.48
2018-04-11T15:34:28.931Z,101055.94
2018-04-11T15:36:57.441Z,101062.00
2018-04-11T15:39:25.715Z,101059.98
2018-04-11T15:41:53.990Z,101064.15
2018-04-11T15:44:22.279Z,101058.47
2018-04-11T15:46:51.343Z,101061.80
2018-04-11T15:49:19.614Z,101057.58
2018-04-11T15:51:48.012Z,101051.91
2018-04-11T15:54:16.298Z,101061.24
2018-04-11T15:56:44.567Z,101059.36
2018-04-11T15:59:13.247Z,101057.31
2018-04-11T16:01:41.530Z,101064.42
2018-04-11T16:04:09.819Z,101063.82
2018-04-11T16:06:38.119Z,101066.06
2018-04-11T16:09:06.411Z,101061.48
2018-04-11T16:11:35.250Z,101062.70
2018-04-11T16:14:03.523Z,101066.92
2018-04-11T16:16:31.826Z,101058.03
2018-04-11T16:19:00.541Z,101058.05
2018-04-11T16:21:30.761Z,101057.69
2018-04-11T16:23:59.530Z,101065.25
2018-04-11T16:26:28.198Z,101054.78
2018-04-11T16:28:56.485Z,101056.96
2018-04-11T16:31:24.786Z,101059.90
2018-04-11T16:33:53.075Z,101051.48
2018-04-11T16:36:22.950Z,101050.59
2018-04-11T16:38:51.739Z,101044.23
2018-04-11T16:41:20.470Z,101031.20
2018-04-11T16:43:49.619Z,101038.58
2018-04-11T16:46:18.307Z,101041.34
2018-04-11T16:48:46.585Z,101038.84
2018-04-11T16:51:14.887Z,101038.91
2018-04-11T16:53:43.627Z,101051.58
2018-04-11T16:56:11.914Z,101040.61
2018-04-11T16:58:40.221Z,101048.99
2018-04-11T17:01:09.282Z,101037.52
2018-04-11T17:03:37.634Z,101052.72
2018-04-11T17:06:05.967Z,101060.22
2018-04-11T17:08:34.452Z,101068.80
2018-04-11T17:11:02.735Z,101074.23
2018-04-11T17:13:31.512Z,101070.87
2018-04-11T17:16:00.102Z,101074.92
2018-04-11T17:18:28.378Z,101072.11
2018-04-11T17:21:14.543Z,101079.52
2018-04-11T17:24:00.561Z,101081.30
2018-04-11T17:26:46.755Z,101078.34
2018-04-11T17:29:32.755Z,101091.30
2018-04-11T17:32:01.124Z,101088.29
2018-04-11T17:34:29.492Z,101088.84
2018-04-11T17:36:57.783Z,101088.06
2018-04-11T17:39:26.107Z,101088.83
2018-04-11T17:41:54.920Z,101079.64
2018-04-11T17:44:23.956Z,101084.48
2018-04-11T17:46:52.542Z,101073.12
2018-04-11T17:49:21.665Z,101078.70
2018-04-11T17:51:50.051Z,101083.11
2018-04-11T17:54:18.675Z,101079.59
2018-04-11T17:56:47.204Z,101082.48
2018-04-11T17:59:15.478Z,101097.64
2018-04-11T18:01:43.799Z,101101.05
2018-04-11T18:04:12.842Z,101096.12
2018-04-11T18:06:41.247Z,101093.53
2018-04-11T18:09:09.532Z,101098.73
2018-04-11T18:11:38.637Z,101080.05
2018-04-11T18:14:07.433Z,101090.08
2018-04-11T18:16:36.469Z,101093.22
2018-04-11T18:19:04.741Z,101086.45
2018-04-11T18:21:33.444Z,101090.67
2018-04-11T18:24:01.759Z,101098.59
2018-04-11T18:26:30.452Z,101098.14
2018-04-11T18:28:59.455Z,101101.22
2018-04-11T18:31:27.819Z,101097.02
2018-04-11T18:33:56.391Z,101101.72
2018-04-11T18:36:25.186Z,101109.21
2018-04-11T18:38:54.135Z,101103.05
2018-04-11T18:41:23.091Z,101107.34
2018-04-11T18:43:51.369Z,101105.20
2018-04-11T18:46:20.731Z,101095.23
2018-04-11T18:48:49.092Z,101105.53
2018-04-11T18:51:17.373Z,101102.04
2018-04-11T18:53:45.679Z,101106.06
2018-04-11T18:56:14.029Z,101093.12
2018-04-11T18:58:42.310Z,101089.67
2018-04-11T19:01:10.605Z,101081.63
2018-04-11T19:03:38.891Z,101080.14
2018-04-11T19:06:07.465Z,101084.34
2018-04-11T19:08:35.767Z,101085.46
2018-04-11T19:11:05.551Z,101089.30
2018-04-11T19:13:34.041Z,101086.70
2018-04-11T19:16:02.341Z,101085.13
2018-04-11T19:18:31.375Z,101088.85
2018-04-11T19:20:59.709Z,101092.84
2018-04-11T19:23:28.489Z,101087.85
2018-04-11T19:25:57.305Z,101092.60
2018-04-11T19:28:25.591Z,101097.34
2018-04-11T19:30:55.179Z,101095.69
2018-04-11T19:33:23.458Z,101098.34
2018-04-11T19:35:51.943Z,101097.03
2018-04-11T19:38:20.293Z,101095.66
2018-04-11T19:40:48.575Z,101099.48
2018-04-11T19:43:16.854Z,101104.20
2018-04-11T19:45:45.162Z,101096.02
2018-04-11T19:48:13.453Z,101097.02
2018-04-11T19:50:42.536Z,101098.34
2018-04-11T19:53:10.866Z,101109.38
2018-04-11T19:55:39.191Z,101107.55
2018-04-11T19:58:07.481Z,101116.59
2018-04-11T20:00:38.214Z,101115.39
2018-04-11T20:03:06.513Z,101115.99
2018-04-11T20:05:35.143Z,101109.25
2018-04-11T20:08:03.417Z,101098.55
2018-04-11T20:10:32.612Z,101107.11
2018-04-11T20:13:00.937Z,101113.12
2018-04-11T20:15:29.968Z,101111.70
2018-04-11T20:17:58.241Z,101110.58
2018-04-11T20:20:26.530Z,101106.66
2018-04-11T20:22:54.851Z,101107.47
2018-04-11T20:25:23.299Z,101104.20
2018-04-11T20:27:52.743Z,101101.45
2018-04-11T20:30:21.027Z,101089.70
2018-04-11T20:32:50.694Z,101091.08
2018-04-11T20:35:18.975Z,101091.83
2018-04-11T20:37:47.262Z,101079.59
2018-04-11T20:40:15.522Z,101087.77
2018-04-11T20:42:43.799Z,101084.34
2018-04-11T20:45:12.196Z,101081.78
2018-04-11T20:47:40.458Z,101089.70
2018-04-11T20:50:08.730Z,101095.59
2018-04-11T20:52:37.123Z,101093.87
2018-04-11T20:55:05.385Z,101092.17
2018-04-11T20:57:33.656Z,101090.41
2018-04-11T21:00:01.973Z,101090.13
2018-04-11T21:02:30.653Z,101080.84
2018-04-11T21:04:59.616Z,101081.30
2018-04-11T21:07:27.890Z,101078.06
2018-04-11T21:09:56.170Z,101076.31
2018-04-11T21:12:24.888Z,101075.89
2018-04-11T21:14:53.152Z,101076.96
2018-04-11T21:17:21.415Z,101076.54
2018-04-11T21:19:50.215Z,101073.64
2018-04-11T21:22:18.537Z,101066.56
2018-04-11T21:24:47.609Z,101069.53
2018-04-11T21:27:15.900Z,101062.95
2018-04-11T21:29:44.713Z,101068.78
2018-04-11T21:32:12.991Z,101067.03
2018-04-11T21:34:43.583Z,101062.92
2018-04-11T21:37:12.201Z,101062.27
2018-04-11T21:39:41.243Z,101064.06
2018-04-11T21:42:09.513Z,101058.52
2018-04-11T21:44:38.002Z,101064.55
2018-04-11T21:47:06.294Z,101056.31
2018-04-11T21:49:34.601Z,101052.37
2018-04-11T21:52:03.592Z,101052.24
2018-04-11T21:54:31.955Z,101048.04
2018-04-11T21:57:00.239Z,101044.14
2018-04-11T21:59:28.542Z,101045.17
2018-04-11T22:01:57.595Z,101047.16
2018-04-11T22:04:26.390Z,101040.26
2018-04-11T22:06:54.702Z,101033.00
2018-04-11T22:09:23.865Z,101035.70
2018-04-11T22:11:52.352Z,101030.92
2018-04-11T22:14:20.640Z,101037.72
2018-04-11T22:16:48.930Z,101040.07
2018-04-11T22:19:17.597Z,101037.53
2018-04-11T22:21:45.862Z,101033.23
2018-04-11T22:24:14.151Z,101030.01
2018-04-11T22:26:42.726Z,101026.75
2018-04-11T22:29:11.012Z,101019.20
2018-04-11T22:31:39.273Z,101022.72
2018-04-11T22:34:07.759Z,101021.34
2018-04-11T22:36:36.042Z,101009.41
2018-04-11T22:39:04.335Z,101008.07
2018-04-11T22:41:32.628Z,101011.03
2018-04-11T22:44:00.905Z,101006.14
2018-04-11T22:46:29.900Z,101007.67
2018-04-11T22:48:58.361Z,101000.29
2018-04-11T22:51:27.249Z,101001.14
2018-04-11T22:53:56.276Z,101005.75
2018-04-11T22:56:24.599Z,101000.65
2018-04-11T22:58:52.861Z,101000.84
2018-04-11T23:01:21.127Z,100992.97
2018-04-11T23:03:50.170Z,101002.92
2018-04-11T23:06:18.488Z,100988.25
2018-04-11T23:08:47.679Z,100993.52
2018-04-11T23:11:15.934Z,100984.44
2018-04-11T23:13:44.492Z,100978.32
2018-04-11T23:16:12.753Z,100981.22
2018-04-11T23:18:41.020Z,100974.35
2018-04-11T23:21:10.151Z,100977.86
2018-04-11T23:23:38.846Z,100974.76
2018-04-11T23:26:08.278Z,100975.25
2018-04-11T23:28:36.622Z,100974.11
2018-04-11T23:31:05.102Z,100967.51
2018-04-11T23:33:33.370Z,100970.11
2018-04-11T23:36:02.721Z,100960.80
2018-04-11T23:38:31.023Z,100968.16
2018-04-11T23:41:00.491Z,100965.66
2018-04-11T23:43:28.767Z,100961.48
2018-04-11T23:45:57.232Z,100967.09
2018-04-11T23:48:25.501Z,100964.55
2018-04-11T23:50:53.978Z,100957.64
2018-04-11T23:53:23.756Z,100956.05
2018-04-11T23:55:52.915Z,100956.30
2018-04-11T23:58:21.277Z,100944.72
